Página principal
METAR-TAF:

METAR-TAF

Aeroportos :

Gabès, Tunísia

latitude: 33-53N, longitude: 010-06E, altura: 4 m

Observação actual do tempo

O boletim foi feito há 19 minutos, às 17:00 UTC
Vento 17 kt de este
Temperatura 30°C
Humidade 55%
Pressão 1011 hPa
Visibilidade: 8000 m
Nuvens dispersasa uma altura de 3000 ft

METAR: DTTG 231700Z 10017KT 8000 SCT030 30/20 Q1011 NOSIG

Hora: 18:19 (17:19 UTC)

Previsão

O boletim foi feito há 2 horas e 19 minutos, às 15:00 UTC
Previsão válida de 23 às 16 UTC a 24 às 01 UTC
Vento 20 kt de este
Visibilidade: 8000 m
Nuvens dispersasa uma altura de 3000 ft

TAF: DTTG 231500Z 2316/2401 08020KT 8000 SCT030

Observações e previsões do tempo de mais de 4000 aeroportos (mensagens METAR e TAF).

As estações disponíveis são os pontos amarelos e vermelhos sobre o mapa.

Mova o rato sobre o mapa para ver o nome da estação.

Depois clique no ponto para visualizar as observações e previsões meteorológicas.

Para alterar o mapa : clique nos botões verdes com uma cruz preta para aumentar o zoom; no botão verde com uma pitada de zoom; ou nas setas verdes para mapas adjacentes.


METAR-TAF: